createdAt,value
2018-01-29T00:00:17.260Z,9.02
2018-01-29T00:01:16.590Z,9
2018-01-29T00:02:16.582Z,9.02
2018-01-29T00:03:16.323Z,9.06
2018-01-29T00:04:16.573Z,9
2018-01-29T00:05:17.651Z,9.08
2018-01-29T00:06:16.561Z,9.13
2018-01-29T00:07:16.327Z,9
2018-01-29T00:08:16.300Z,9.11
2018-01-29T00:09:16.352Z,9.06
2018-01-29T00:10:17.748Z,9.03
2018-01-29T00:11:16.536Z,9.06
2018-01-29T00:12:16.048Z,9.11
2018-01-29T00:13:16.031Z,9.08
2018-01-29T00:14:16.267Z,9.08
2018-01-29T00:15:16.992Z,9.03
2018-01-29T00:16:16.008Z,9.04
2018-01-29T00:17:16.254Z,9.03
2018-01-29T00:18:16.507Z,8.99
2018-01-29T00:19:16.246Z,9.03
2018-01-29T00:20:17.473Z,8.99
2018-01-29T00:21:16.243Z,9.02
2018-01-29T00:22:16.485Z,9.06
2018-01-29T00:23:16.237Z,9
2018-01-29T00:24:15.968Z,9
2018-01-29T00:25:17.384Z,9.04
2018-01-29T00:26:15.958Z,9
2018-01-29T00:27:16.459Z,8.95
2018-01-29T00:28:16.246Z,9.02
2018-01-29T00:29:16.446Z,8.94
2018-01-29T00:30:17.428Z,8.84
2018-01-29T00:31:16.439Z,8.91
2018-01-29T00:32:16.181Z,8.88
2018-01-29T00:33:16.434Z,8.82
2018-01-29T00:34:15.938Z,8.81
2018-01-29T00:35:17.909Z,8.79
2018-01-29T00:36:16.420Z,8.81
2018-01-29T00:37:16.420Z,8.84
2018-01-29T00:38:16.406Z,8.71
2018-01-29T00:39:16.402Z,8.69
2018-01-29T00:40:17.671Z,8.81
2018-01-29T00:41:16.392Z,8.76
2018-01-29T00:42:16.135Z,8.78
2018-01-29T00:43:16.130Z,8.81
2018-01-29T00:44:16.377Z,8.78
2018-01-29T00:45:17.141Z,8.82
2018-01-29T00:46:16.120Z,8.91
2018-01-29T00:47:16.366Z,8.85
2018-01-29T00:48:16.103Z,8.79
2018-01-29T00:49:15.853Z,8.84
2018-01-29T00:50:17.677Z,8.82
2018-01-29T00:51:16.090Z,8.82
2018-01-29T00:52:16.340Z,8.85
2018-01-29T00:53:16.080Z,8.82
2018-01-29T00:54:16.331Z,8.82
2018-01-29T00:55:17.492Z,8.87
2018-01-29T00:56:16.323Z,8.88
2018-01-29T00:57:16.311Z,8.87
2018-01-29T00:58:16.064Z,8.87
2018-01-29T00:59:16.305Z,8.91
2018-01-29T01:00:17.387Z,8.92
2018-01-29T01:01:16.046Z,8.88
2018-01-29T01:02:16.287Z,8.85
2018-01-29T01:03:16.280Z,9
2018-01-29T01:04:16.277Z,9.06
2018-01-29T01:05:17.465Z,9.02
2018-01-29T01:06:16.271Z,8.95
2018-01-29T01:07:16.010Z,8.95
2018-01-29T01:08:16.263Z,8.99
2018-01-29T01:09:16.002Z,9
2018-01-29T01:10:17.181Z,8.99
2018-01-29T01:11:16.020Z,9.02
2018-01-29T01:12:15.988Z,8.99
2018-01-29T01:13:15.863Z,8.91
2018-01-29T01:14:15.975Z,8.85
2018-01-29T01:15:17.195Z,8.89
2018-01-29T01:16:16.222Z,8.87
2018-01-29T01:17:16.218Z,8.88
2018-01-29T01:18:16.213Z,8.87
2018-01-29T01:19:15.957Z,8.76
2018-01-29T01:20:16.858Z,8.71
2018-01-29T01:21:15.943Z,8.74
2018-01-29T01:22:15.940Z,8.78
2018-01-29T01:23:15.933Z,8.69
2018-01-29T01:24:15.936Z,8.7
2018-01-29T01:25:16.409Z,8.61
2018-01-29T01:26:15.921Z,8.53
2018-01-29T01:27:15.917Z,8.56
2018-01-29T01:28:15.656Z,8.53
2018-01-29T01:29:15.902Z,8.38
2018-01-29T01:30:17.883Z,8.42
2018-01-29T01:31:16.152Z,8.42
2018-01-29T01:32:16.284Z,8.31
2018-01-29T01:33:15.883Z,8.3
2018-01-29T01:34:16.131Z,8.34
2018-01-29T01:35:17.181Z,8.24
2018-01-29T01:36:15.881Z,8.19
2018-01-29T01:37:15.866Z,8.15
2018-01-29T01:38:16.107Z,8.19
2018-01-29T01:39:15.853Z,8.12
2018-01-29T01:40:17.061Z,8.18
2018-01-29T01:41:15.595Z,8.18
2018-01-29T01:42:15.834Z,8.27
2018-01-29T01:43:15.586Z,8.24
2018-01-29T01:44:15.575Z,8.28
2018-01-29T01:45:18.102Z,8.18
2018-01-29T01:46:16.064Z,8.3
2018-01-29T01:47:16.060Z,8.33
2018-01-29T01:48:15.803Z,8.27
2018-01-29T01:49:15.814Z,8.28
2018-01-29T01:50:17.319Z,8.34
2018-01-29T01:51:15.786Z,8.27
2018-01-29T01:52:15.784Z,8.42
2018-01-29T01:53:16.037Z,8.3
2018-01-29T01:54:15.533Z,8.26
2018-01-29T01:55:18.910Z,8.2
2018-01-29T01:56:15.764Z,8.31
2018-01-29T01:57:15.504Z,8.18
2018-01-29T01:58:15.511Z,8.16
2018-01-29T01:59:15.748Z,8.24
2018-01-29T02:00:17.414Z,8.19
2018-01-29T02:01:15.481Z,8.09
2018-01-29T02:02:15.985Z,8.01
2018-01-29T02:03:15.972Z,8.08
2018-01-29T02:04:15.965Z,8.12
2018-01-29T02:05:16.361Z,8.01
2018-01-29T02:06:15.707Z,8.03
2018-01-29T02:07:15.705Z,8
2018-01-29T02:08:15.703Z,7.87
2018-01-29T02:09:15.687Z,7.87
2018-01-29T02:10:16.338Z,7.91
2018-01-29T02:11:15.693Z,7.88
2018-01-29T02:12:15.672Z,7.79
2018-01-29T02:13:15.920Z,7.77
2018-01-29T02:14:15.661Z,7.73
2018-01-29T02:15:16.175Z,7.72
2018-01-29T02:16:15.658Z,7.7
2018-01-29T02:17:15.658Z,7.72
2018-01-29T02:18:15.407Z,7.67
2018-01-29T02:19:15.388Z,7.58
2018-01-29T02:20:16.955Z,7.63
2018-01-29T02:21:15.622Z,7.56
2018-01-29T02:22:15.366Z,7.58
2018-01-29T02:23:15.861Z,7.51
2018-01-29T02:24:15.603Z,7.58
2018-01-29T02:25:16.248Z,7.61
2018-01-29T02:26:15.597Z,7.6
2018-01-29T02:27:15.337Z,7.66
2018-01-29T02:28:15.340Z,7.66
2018-01-29T02:29:15.832Z,7.58
2018-01-29T02:30:16.751Z,7.7
2018-01-29T02:31:15.821Z,7.73
2018-01-29T02:32:15.560Z,7.67
2018-01-29T02:33:15.559Z,7.67
2018-01-29T02:34:15.309Z,7.77
2018-01-29T02:35:16.088Z,7.7
2018-01-29T02:36:15.796Z,7.82
2018-01-29T02:37:15.538Z,7.8
2018-01-29T02:38:15.530Z,7.83
2018-01-29T02:39:15.782Z,7.85
2018-01-29T02:40:17.029Z,7.77
2018-01-29T02:41:15.765Z,7.91
2018-01-29T02:42:15.517Z,7.95
2018-01-29T02:43:15.501Z,7.88
2018-01-29T02:44:15.743Z,7.91
2018-01-29T02:45:16.315Z,7.88
2018-01-29T02:46:15.735Z,7.95
2018-01-29T02:47:15.738Z,7.88
2018-01-29T02:48:15.726Z,7.93
2018-01-29T02:49:15.763Z,7.97
2018-01-29T02:50:17.075Z,8.03
2018-01-29T02:51:15.456Z,7.97
2018-01-29T02:52:15.454Z,8
2018-01-29T02:53:15.192Z,7.91
2018-01-29T02:54:15.438Z,8.05
2018-01-29T02:55:16.661Z,7.94
2018-01-29T02:56:15.682Z,7.98
2018-01-29T02:57:15.424Z,8
2018-01-29T02:58:15.690Z,8.03
2018-01-29T02:59:15.668Z,8
2018-01-29T03:00:16.690Z,8.15
2018-01-29T03:01:18.672Z,8.23
2018-01-29T03:02:15.674Z,8.19
2018-01-29T03:03:15.138Z,8.16
2018-01-29T03:04:15.384Z,8.16
2018-01-29T03:05:16.571Z,8.19
2018-01-29T03:06:15.626Z,8.18
2018-01-29T03:07:15.644Z,8.18
2018-01-29T03:08:15.376Z,8.28
2018-01-29T03:09:15.610Z,8.18
2018-01-29T03:10:16.872Z,8.19
2018-01-29T03:11:15.607Z,8.24
2018-01-29T03:12:15.611Z,8.27
2018-01-29T03:13:15.340Z,8.19
2018-01-29T03:14:15.332Z,8.27
2018-01-29T03:15:16.971Z,8.19
2018-01-29T03:16:15.328Z,8.19
2018-01-29T03:17:15.321Z,8.24
2018-01-29T03:18:15.572Z,8.19
2018-01-29T03:19:15.306Z,8.18
2018-01-29T03:20:17.041Z,8.19
2018-01-29T03:21:15.294Z,8.16
2018-01-29T03:22:15.289Z,8.1
2018-01-29T03:23:15.036Z,8.2
2018-01-29T03:24:15.276Z,8.23
2018-01-29T03:25:16.239Z,8.16
2018-01-29T03:26:15.518Z,8.15
2018-01-29T03:27:15.263Z,8.16
2018-01-29T03:28:15.251Z,8.2
2018-01-29T03:29:15.251Z,8.26
2018-01-29T03:30:16.936Z,8.24
2018-01-29T03:31:15.497Z,8.27
2018-01-29T03:32:15.492Z,8.16
2018-01-29T03:33:15.507Z,8.2
2018-01-29T03:34:14.985Z,8.24
2018-01-29T03:35:16.670Z,8.15
2018-01-29T03:36:15.476Z,8.3
2018-01-29T03:37:15.215Z,8.23
2018-01-29T03:38:15.461Z,8.26
2018-01-29T03:39:14.950Z,8.23
2018-01-29T03:40:16.584Z,8.33
2018-01-29T03:41:14.937Z,8.28
2018-01-29T03:42:14.930Z,8.27
2018-01-29T03:43:15.175Z,8.31
2018-01-29T03:44:15.428Z,8.3
2018-01-29T03:45:17.013Z,8.3
2018-01-29T03:46:15.167Z,8.33
2018-01-29T03:47:15.268Z,8.38
2018-01-29T03:48:15.150Z,8.37
2018-01-29T03:49:15.159Z,8.45
2018-01-29T03:50:16.829Z,8.41
2018-01-29T03:51:15.141Z,8.34
2018-01-29T03:52:14.877Z,8.42
2018-01-29T03:53:14.879Z,8.41
2018-01-29T03:54:15.368Z,8.44
2018-01-29T03:55:16.453Z,8.38
2018-01-29T03:56:15.370Z,8.38
2018-01-29T03:57:15.104Z,8.44
2018-01-29T03:58:15.359Z,8.41
2018-01-29T03:59:15.349Z,8.37
2018-01-29T04:00:16.539Z,8.42
2018-01-29T04:01:15.092Z,8.34
2018-01-29T04:02:15.385Z,8.38
2018-01-29T04:03:14.825Z,8.38
2018-01-29T04:04:15.327Z,8.41
2018-01-29T04:05:16.640Z,8.37
2018-01-29T04:06:15.061Z,8.42
2018-01-29T04:07:14.812Z,8.45
2018-01-29T04:08:15.310Z,8.45
2018-01-29T04:09:15.299Z,8.41
2018-01-29T04:10:16.228Z,8.45
2018-01-29T04:11:15.038Z,8.38
2018-01-29T04:12:15.282Z,8.44
2018-01-29T04:13:15.024Z,8.36
2018-01-29T04:14:15.276Z,8.38
2018-01-29T04:15:17.310Z,8.38
2018-01-29T04:16:15.011Z,8.44
2018-01-29T04:17:15.006Z,8.42
2018-01-29T04:18:14.749Z,8.44
2018-01-29T04:19:14.747Z,8.51
2018-01-29T04:20:15.785Z,8.51
2018-01-29T04:21:14.995Z,8.51
2018-01-29T04:22:15.234Z,8.49
2018-01-29T04:23:14.975Z,8.48
2018-01-29T04:24:14.969Z,8.55
2018-01-29T04:25:16.193Z,8.53
2018-01-29T04:26:14.961Z,8.49
2018-01-29T04:27:14.954Z,8.51
2018-01-29T04:28:14.951Z,8.49
2018-01-29T04:29:14.950Z,8.53
2018-01-29T04:30:16.018Z,8.49
2018-01-29T04:31:14.934Z,8.51
2018-01-29T04:32:16.779Z,8.52
2018-01-29T04:33:14.935Z,8.53
2018-01-29T04:34:14.670Z,8.6
2018-01-29T04:35:16.399Z,8.53
2018-01-29T04:36:14.914Z,8.53
2018-01-29T04:37:14.656Z,8.56
2018-01-29T04:38:14.904Z,8.6
2018-01-29T04:39:15.156Z,8.58
2018-01-29T04:40:16.000Z,8.6
2018-01-29T04:41:14.894Z,8.6
2018-01-29T04:42:14.894Z,8.6
2018-01-29T04:43:14.624Z,8.53
2018-01-29T04:44:14.869Z,8.53
2018-01-29T04:45:15.995Z,8.6
2018-01-29T04:46:14.863Z,8.55
2018-01-29T04:47:15.108Z,8.55
2018-01-29T04:48:14.850Z,8.61
2018-01-29T04:49:14.852Z,8.6
2018-01-29T04:50:16.298Z,8.6
2018-01-29T04:51:14.596Z,8.58
2018-01-29T04:52:14.844Z,8.63
2018-01-29T04:53:14.840Z,8.52
2018-01-29T04:54:14.834Z,8.64
2018-01-29T04:55:16.340Z,8.53
2018-01-29T04:56:15.065Z,8.53
2018-01-29T04:57:15.063Z,8.58
2018-01-29T04:58:14.806Z,8.53
2018-01-29T04:59:15.046Z,8.51
2018-01-29T05:00:16.440Z,8.64
2018-01-29T05:01:15.046Z,8.58
2018-01-29T05:02:15.485Z,8.63
2018-01-29T05:03:14.779Z,8.61
2018-01-29T05:04:14.787Z,8.56
2018-01-29T05:05:15.657Z,8.56
2018-01-29T05:06:14.766Z,8.71
2018-01-29T05:07:14.513Z,8.66
2018-01-29T05:08:14.754Z,8.71
2018-01-29T05:09:14.748Z,8.74
2018-01-29T05:10:16.337Z,8.76
2018-01-29T05:11:14.734Z,8.79
2018-01-29T05:12:14.484Z,8.71
2018-01-29T05:13:14.733Z,8.87
2018-01-29T05:14:14.471Z,8.87
2018-01-29T05:15:15.684Z,8.85
2018-01-29T05:16:14.714Z,8.82
2018-01-29T05:17:14.464Z,8.82
2018-01-29T05:18:14.448Z,8.82
2018-01-29T05:19:15.010Z,8.84
2018-01-29T05:20:16.413Z,8.81
2018-01-29T05:21:14.686Z,8.87
2018-01-29T05:22:14.682Z,8.91
2018-01-29T05:23:14.680Z,8.88
2018-01-29T05:24:14.422Z,8.88
2018-01-29T05:25:16.361Z,8.88
2018-01-29T05:26:14.659Z,8.94
2018-01-29T05:27:14.667Z,8.87
2018-01-29T05:28:14.914Z,8.91
2018-01-29T05:29:14.644Z,8.95
2018-01-29T05:30:16.335Z,8.87
2018-01-29T05:31:14.646Z,8.95
2018-01-29T05:32:15.982Z,9.02
2018-01-29T05:33:14.881Z,9.02
2018-01-29T05:34:14.622Z,9.04
2018-01-29T05:35:15.639Z,9.03
2018-01-29T05:36:14.867Z,9.03
2018-01-29T05:37:14.610Z,8.97
2018-01-29T05:38:14.603Z,8.91
2018-01-29T05:39:14.859Z,8.91
2018-01-29T05:40:16.202Z,8.95
2018-01-29T05:41:14.841Z,8.91
2018-01-29T05:42:14.838Z,9.04
2018-01-29T05:43:14.831Z,9
2018-01-29T05:44:14.842Z,9.03
2018-01-29T05:45:15.689Z,8.99
2018-01-29T05:46:14.563Z,9.04
2018-01-29T05:47:14.552Z,8.95
2018-01-29T05:48:14.554Z,9.08
2018-01-29T05:49:14.530Z,9.03
2018-01-29T05:50:15.972Z,9.02
2018-01-29T05:51:14.788Z,9.08
2018-01-29T05:52:14.544Z,9.11
2018-01-29T05:53:14.537Z,9.14
2018-01-29T05:54:14.772Z,9.11
2018-01-29T05:55:16.364Z,9.19
2018-01-29T05:56:14.256Z,9.13
2018-01-29T05:57:14.757Z,9.16
2018-01-29T05:58:14.503Z,9.23
2018-01-29T05:59:14.498Z,9.13
2018-01-29T06:00:16.188Z,9.22
2018-01-29T06:01:14.736Z,9.18
2018-01-29T06:02:14.736Z,9.23
2018-01-29T06:03:14.739Z,9.23
2018-01-29T06:04:14.214Z,9.18
2018-01-29T06:05:15.881Z,9.16
2018-01-29T06:06:14.459Z,9.21
2018-01-29T06:07:14.200Z,9.19
2018-01-29T06:08:14.706Z,9.16
2018-01-29T06:09:14.707Z,9.11
2018-01-29T06:10:15.580Z,9.14
2018-01-29T06:11:14.438Z,9.13
2018-01-29T06:12:14.445Z,9.11
2018-01-29T06:13:14.676Z,9.06
2018-01-29T06:14:14.667Z,9.22
2018-01-29T06:15:15.743Z,9.18
2018-01-29T06:16:14.465Z,9.18
2018-01-29T06:17:14.417Z,9.18
2018-01-29T06:18:14.414Z,9.19
2018-01-29T06:19:14.142Z,9.21
2018-01-29T06:20:15.669Z,9.31
2018-01-29T06:21:14.385Z,9.14
2018-01-29T06:22:14.632Z,9.26
2018-01-29T06:23:14.632Z,9.21
2018-01-29T06:24:14.368Z,9.28
2018-01-29T06:25:16.158Z,9.16
2018-01-29T06:26:14.611Z,9.19
2018-01-29T06:27:14.622Z,9.23
2018-01-29T06:28:14.687Z,9.23
2018-01-29T06:29:14.614Z,9.19
2018-01-29T06:30:15.450Z,9.14
2018-01-29T06:31:14.338Z,9.14
2018-01-29T06:32:14.584Z,9.18
2018-01-29T06:33:14.325Z,9.22
2018-01-29T06:34:14.318Z,9.22
2018-01-29T06:35:15.918Z,9.18
2018-01-29T06:36:14.312Z,9.18
2018-01-29T06:37:14.312Z,9.11
2018-01-29T06:38:14.309Z,9.23
2018-01-29T06:39:14.563Z,9.14
2018-01-29T06:40:16.356Z,9.25
2018-01-29T06:41:14.287Z,9.21
2018-01-29T06:42:14.032Z,9.23
2018-01-29T06:43:14.276Z,9.25
2018-01-29T06:44:14.034Z,9.19
2018-01-29T06:45:15.669Z,9.29
2018-01-29T06:46:14.513Z,9.16
2018-01-29T06:47:14.507Z,9.28
2018-01-29T06:48:14.506Z,9.18
2018-01-29T06:49:14.504Z,9.22
2018-01-29T06:50:16.180Z,9.19
2018-01-29T06:51:14.495Z,9.21
2018-01-29T06:52:14.241Z,9.18
2018-01-29T06:53:13.988Z,9.22
2018-01-29T06:54:14.223Z,9.25
2018-01-29T06:55:15.614Z,9.19
2018-01-29T06:56:14.546Z,9.19
2018-01-29T06:57:14.210Z,9.29
2018-01-29T06:58:14.207Z,9.26
2018-01-29T06:59:14.198Z,9.32
2018-01-29T07:00:15.894Z,9.34
2018-01-29T07:01:14.248Z,9.29
2018-01-29T07:02:14.187Z,9.26
2018-01-29T07:03:14.181Z,9.25
2018-01-29T07:04:14.173Z,9.36
2018-01-29T07:05:16.221Z,9.29
2018-01-29T07:06:14.168Z,9.37
2018-01-29T07:07:14.517Z,9.34
2018-01-29T07:08:14.154Z,9.31
2018-01-29T07:09:14.154Z,9.26
2018-01-29T07:10:15.806Z,9.29
2018-01-29T07:11:14.151Z,9.32
2018-01-29T07:12:14.389Z,9.32
2018-01-29T07:13:14.143Z,9.28
2018-01-29T07:14:14.384Z,9.34
2018-01-29T07:15:15.809Z,9.32
2018-01-29T07:16:14.376Z,9.29
2018-01-29T07:17:14.110Z,9.32
2018-01-29T07:18:14.112Z,9.32
2018-01-29T07:19:14.361Z,9.32
2018-01-29T07:20:15.127Z,9.36
2018-01-29T07:21:14.105Z,9.29
2018-01-29T07:22:14.344Z,9.29
2018-01-29T07:23:14.334Z,9.31
2018-01-29T07:24:14.339Z,9.29
2018-01-29T07:25:15.461Z,9.34
2018-01-29T07:26:14.067Z,9.37
2018-01-29T07:27:13.893Z,9.34
2018-01-29T07:28:14.070Z,9.29
2018-01-29T07:29:14.311Z,9.31
2018-01-29T07:30:15.676Z,9.31
2018-01-29T07:31:14.295Z,9.43
2018-01-29T07:32:14.306Z,9.48
2018-01-29T07:33:13.784Z,9.43
2018-01-29T07:34:14.349Z,9.5
2018-01-29T07:35:15.509Z,9.41
2018-01-29T07:36:14.023Z,9.43
2018-01-29T07:37:14.269Z,9.5
2018-01-29T07:38:14.269Z,9.43
2018-01-29T07:39:14.013Z,9.5
2018-01-29T07:40:14.996Z,9.43
2018-01-29T07:41:14.006Z,9.47
2018-01-29T07:42:14.004Z,9.55
2018-01-29T07:43:14.256Z,9.58
2018-01-29T07:44:13.991Z,9.56
2018-01-29T07:45:15.827Z,9.54
2018-01-29T07:46:14.040Z,9.55
2018-01-29T07:47:14.228Z,9.56
2018-01-29T07:48:13.732Z,9.64
2018-01-29T07:49:13.719Z,9.66
2018-01-29T07:50:16.066Z,9.66
2018-01-29T07:51:14.212Z,9.73
2018-01-29T07:52:13.957Z,9.73
2018-01-29T07:53:13.951Z,9.74
2018-01-29T07:54:13.946Z,9.83
2018-01-29T07:55:15.569Z,9.8
2018-01-29T07:56:13.686Z,9.84
2018-01-29T07:57:13.932Z,9.89
2018-01-29T07:58:13.928Z,9.92
2018-01-29T07:59:13.924Z,9.91
2018-01-29T08:00:15.755Z,9.87
2018-01-29T08:01:13.915Z,9.92
2018-01-29T08:02:13.915Z,9.97
2018-01-29T08:03:13.907Z,10.01
2018-01-29T08:04:14.159Z,9.98
2018-01-29T08:05:15.706Z,9.98
2018-01-29T08:06:14.150Z,10.02
2018-01-29T08:07:13.640Z,10.09
2018-01-29T08:08:13.634Z,9.98
2018-01-29T08:09:14.146Z,10.09
2018-01-29T08:10:15.312Z,10.07
2018-01-29T08:11:13.877Z,10.16
2018-01-29T08:12:14.131Z,10.17
2018-01-29T08:13:13.883Z,10.2
2018-01-29T08:14:13.612Z,10.12
2018-01-29T08:15:15.848Z,10.09
2018-01-29T08:16:14.108Z,10.16
2018-01-29T08:17:13.603Z,10.25
2018-01-29T08:18:14.109Z,10.23
2018-01-29T08:19:13.854Z,10.25
2018-01-29T08:20:15.891Z,10.31
2018-01-29T08:21:13.844Z,10.41
2018-01-29T08:22:14.098Z,10.33
2018-01-29T08:23:14.090Z,10.4
2018-01-29T08:24:13.831Z,10.42
2018-01-29T08:25:15.625Z,10.46
2018-01-29T08:26:13.834Z,10.37
2018-01-29T08:27:13.838Z,10.46
2018-01-29T08:28:14.065Z,10.38
2018-01-29T08:29:14.058Z,10.38
2018-01-29T08:30:15.294Z,10.46
2018-01-29T08:31:13.804Z,10.42
2018-01-29T08:32:14.056Z,10.38
2018-01-29T08:33:13.806Z,10.41
2018-01-29T08:34:14.046Z,10.37
2018-01-29T08:35:15.249Z,10.42
2018-01-29T08:36:14.048Z,10.4
2018-01-29T08:38:14.035Z,10.49
2018-01-29T08:39:13.779Z,10.42
2018-01-29T08:40:15.334Z,10.42
2018-01-29T08:41:14.024Z,10.44
2018-01-29T08:42:13.764Z,10.46
2018-01-29T08:43:13.758Z,10.48
2018-01-29T08:44:14.014Z,10.56
2018-01-29T08:45:15.599Z,10.56
2018-01-29T08:46:14.005Z,10.67
2018-01-29T08:47:13.504Z,10.67
2018-01-29T08:48:13.750Z,10.74
2018-01-29T08:49:13.988Z,10.76
2018-01-29T08:50:14.730Z,10.75
2018-01-29T08:51:13.731Z,10.74
2018-01-29T08:52:13.978Z,10.74
2018-01-29T08:53:13.973Z,10.74
2018-01-29T08:54:13.970Z,10.59
2018-01-29T08:55:15.149Z,10.69
2018-01-29T08:56:13.975Z,10.74
2018-01-29T08:57:13.711Z,10.75
2018-01-29T08:58:13.962Z,10.68
2018-01-29T08:59:13.991Z,10.76
2018-01-29T09:00:16.071Z,10.71
2018-01-29T09:01:13.954Z,10.78
2018-01-29T09:02:13.703Z,10.84
2018-01-29T09:03:14.900Z,10.97
2018-01-29T09:04:13.956Z,10.92
2018-01-29T09:05:16.022Z,10.93
2018-01-29T09:06:13.684Z,11.1
2018-01-29T09:07:13.935Z,11.12
2018-01-29T09:08:13.954Z,11.18
2018-01-29T09:09:13.938Z,11.05
2018-01-29T09:10:15.512Z,11.02
2018-01-29T09:11:13.667Z,10.97
2018-01-29T09:12:13.663Z,11.08
2018-01-29T09:13:13.938Z,10.99
2018-01-29T09:14:13.942Z,11.04
2018-01-29T09:15:15.172Z,11
2018-01-29T09:16:13.648Z,11.04
2018-01-29T09:17:13.900Z,11.02
2018-01-29T09:18:13.901Z,11.07
2018-01-29T09:19:13.649Z,11.14
2018-01-29T09:20:15.304Z,11.14
2018-01-29T09:21:13.896Z,11.1
2018-01-29T09:22:13.640Z,11.12
2018-01-29T09:23:13.900Z,11.19
2018-01-29T09:24:13.900Z,11.27
2018-01-29T09:25:15.383Z,11.22
2018-01-29T09:26:13.878Z,11.22
2018-01-29T09:27:13.620Z,11.26
2018-01-29T09:28:13.362Z,11.3
2018-01-29T09:29:13.652Z,11.26
2018-01-29T09:30:15.325Z,11.3
2018-01-29T09:31:13.881Z,11.27
2018-01-29T09:32:13.600Z,11.35
2018-01-29T09:33:13.603Z,11.32
2018-01-29T09:34:13.349Z,11.4
2018-01-29T09:35:15.028Z,11.44
2018-01-29T09:36:13.845Z,11.51
2018-01-29T09:37:13.842Z,11.47
2018-01-29T09:38:13.592Z,11.51
2018-01-29T09:39:13.839Z,11.45
2018-01-29T09:40:14.916Z,11.57
2018-01-29T09:41:13.575Z,11.7
2018-01-29T09:42:13.574Z,11.69
2018-01-29T09:43:13.840Z,11.75
2018-01-29T09:44:13.574Z,11.69
2018-01-29T09:45:15.002Z,11.75
2018-01-29T09:46:13.574Z,11.57
2018-01-29T09:47:13.810Z,11.59
2018-01-29T09:48:13.566Z,11.63
2018-01-29T09:49:13.818Z,11.72
2018-01-29T09:50:15.400Z,11.72
2018-01-29T09:51:13.559Z,11.83
2018-01-29T09:52:13.548Z,11.8
2018-01-29T09:53:13.804Z,11.84
2018-01-29T09:54:13.797Z,11.78
2018-01-29T09:55:15.543Z,11.72
2018-01-29T09:56:13.553Z,11.72
2018-01-29T09:57:13.796Z,11.75
2018-01-29T09:58:13.932Z,11.72
2018-01-29T09:59:13.785Z,11.75
2018-01-29T10:00:14.640Z,11.83
2018-01-29T10:01:13.547Z,11.75
2018-01-29T10:02:13.529Z,11.68
2018-01-29T10:03:13.535Z,11.62
2018-01-29T10:04:13.270Z,11.52
2018-01-29T10:05:15.091Z,11.5
2018-01-29T10:06:13.258Z,11.44
2018-01-29T10:07:13.506Z,11.43
2018-01-29T10:08:13.759Z,11.4
2018-01-29T10:09:13.500Z,11.52
2018-01-29T10:10:15.251Z,11.45
2018-01-29T10:11:13.749Z,11.55
2018-01-29T10:12:13.496Z,11.41
2018-01-29T10:13:13.498Z,11.54
2018-01-29T10:14:13.494Z,11.44
2018-01-29T10:15:14.994Z,11.45
2018-01-29T10:16:13.238Z,11.59
2018-01-29T10:17:13.730Z,11.54
2018-01-29T10:18:13.223Z,11.7
2018-01-29T10:19:13.734Z,11.73
2018-01-29T10:20:14.857Z,11.81
2018-01-29T10:21:13.730Z,11.83
2018-01-29T10:22:13.467Z,11.9
2018-01-29T10:23:13.465Z,11.88
2018-01-29T10:53:32.276Z,12.24
2018-01-29T10:54:32.318Z,12.1
2018-01-29T10:55:32.274Z,12.07
2018-01-29T10:56:32.006Z,12
2018-01-29T10:57:32.241Z,12.06
2018-01-29T10:58:32.237Z,12
2018-01-29T10:59:32.227Z,12.06
2018-01-29T11:00:32.227Z,12.09
2018-01-29T11:01:31.978Z,12.06
2018-01-29T11:02:31.962Z,12
2018-01-29T11:03:32.209Z,12.02
2018-01-29T11:04:32.205Z,12.17
2018-01-29T11:05:31.704Z,12.17
2018-01-29T11:06:31.969Z,12.25
2018-01-29T11:07:31.944Z,12.32
2018-01-29T11:08:32.454Z,12.37
2018-01-29T11:09:32.183Z,12.35
2018-01-29T11:10:32.186Z,12.32
2018-01-29T11:11:32.187Z,12.5
2018-01-29T11:12:31.940Z,12.4
2018-01-29T11:13:32.175Z,12.42
2018-01-29T11:14:31.916Z,12.47
2018-01-29T11:15:31.919Z,12.49
2018-01-29T11:16:32.183Z,12.49
2018-01-29T11:17:32.236Z,12.55
2018-01-29T11:18:32.156Z,12.6
2018-01-29T11:19:31.659Z,12.57
2018-01-29T11:20:31.898Z,12.61
2018-01-29T11:21:32.193Z,12.62
2018-01-29T11:22:32.194Z,12.65
2018-01-29T11:23:31.896Z,12.61
2018-01-29T11:24:31.911Z,12.58
2018-01-29T11:25:31.889Z,12.55
2018-01-29T11:26:32.136Z,12.57
2018-01-29T11:27:32.139Z,12.68
2018-01-29T11:28:31.943Z,12.62
2018-01-29T11:29:32.139Z,12.72
2018-01-29T11:30:31.886Z,12.58
2018-01-29T11:31:31.884Z,12.54
2018-01-29T11:32:31.891Z,12.49
2018-01-29T11:33:31.887Z,12.49
2018-01-29T11:34:31.649Z,12.6
2018-01-29T11:35:32.125Z,12.65
2018-01-29T11:36:31.865Z,12.68
2018-01-29T11:37:31.875Z,12.75
2018-01-29T11:38:33.971Z,12.79
2018-01-29T11:39:32.114Z,12.85
2018-01-29T11:40:31.881Z,12.82
2018-01-29T11:41:32.126Z,12.85
2018-01-29T11:42:31.623Z,12.93
2018-01-29T11:43:31.872Z,12.94
2018-01-29T11:44:31.862Z,13
2018-01-29T11:45:31.854Z,12.98
2018-01-29T11:46:32.113Z,13
2018-01-29T11:47:32.102Z,13.01
2018-01-29T11:48:31.864Z,13.25
2018-01-29T11:49:32.099Z,13.16
2018-01-29T11:50:32.106Z,13.18
2018-01-29T11:51:31.908Z,13.15
2018-01-29T11:52:31.921Z,13.01
2018-01-29T11:53:31.854Z,13.12
2018-01-29T11:54:31.608Z,13.13
2018-01-29T11:55:31.845Z,13.04
2018-01-29T11:56:31.848Z,13.11
2018-01-29T11:57:31.610Z,13.15
2018-01-29T11:58:32.091Z,13.23
2018-01-29T11:59:31.839Z,13.28
2018-01-29T12:00:31.846Z,13.35
2018-01-29T12:01:32.091Z,13.39
2018-01-29T12:02:32.096Z,13.37
2018-01-29T12:03:31.592Z,13.41
2018-01-29T12:04:31.836Z,13.39
2018-01-29T12:05:31.848Z,13.42
2018-01-29T12:06:31.585Z,13.38
2018-01-29T12:07:32.164Z,13.39
2018-01-29T12:08:32.893Z,13.47
2018-01-29T12:09:31.831Z,13.62
2018-01-29T12:10:32.086Z,13.6
2018-01-29T12:11:31.841Z,13.68
2018-01-29T12:12:32.092Z,13.81
2018-01-29T12:13:32.088Z,13.79
2018-01-29T12:14:31.830Z,13.78
2018-01-29T12:15:31.834Z,13.81
2018-01-29T12:16:32.089Z,13.75
2018-01-29T12:17:31.832Z,13.77
2018-01-29T12:18:32.079Z,13.65
2018-01-29T12:19:31.571Z,13.62
2018-01-29T12:20:32.103Z,13.52
2018-01-29T12:21:31.576Z,13.47
2018-01-29T12:22:31.824Z,13.47
2018-01-29T12:23:32.091Z,13.44
2018-01-29T12:24:31.824Z,13.42
2018-01-29T12:25:31.829Z,13.5
2018-01-29T12:26:31.830Z,13.46
2018-01-29T12:27:32.079Z,13.59
2018-01-29T12:28:31.820Z,13.52
2018-01-29T12:29:31.827Z,13.38
2018-01-29T12:30:31.935Z,13.41
2018-01-29T12:31:31.857Z,13.44
2018-01-29T12:32:31.821Z,13.47
2018-01-29T12:33:31.826Z,13.54
2018-01-29T12:34:32.083Z,13.52
2018-01-29T12:35:31.895Z,13.6
2018-01-29T12:36:31.825Z,13.56
2018-01-29T12:37:31.570Z,13.57
2018-01-29T12:38:31.812Z,13.49
2018-01-29T12:39:31.812Z,13.39
2018-01-29T12:40:32.093Z,13.39
2018-01-29T12:41:31.561Z,13.38
2018-01-29T12:42:31.812Z,13.44
2018-01-29T12:43:31.559Z,13.46
2018-01-29T12:44:32.071Z,13.47
2018-01-29T12:45:31.808Z,13.46
2018-01-29T12:46:31.807Z,13.47
2018-01-29T12:47:31.811Z,13.44
2018-01-29T12:48:32.067Z,13.44
2018-01-29T12:49:32.058Z,13.3
2018-01-29T12:50:32.060Z,13.23
2018-01-29T12:51:31.800Z,13.22
2018-01-29T12:52:32.064Z,13.18
2018-01-29T12:53:32.049Z,13.12
2018-01-29T12:54:32.049Z,13.11
2018-01-29T12:55:31.802Z,13.04
2018-01-29T12:56:31.802Z,13.22
2018-01-29T12:57:31.803Z,13.18
2018-01-29T12:58:31.833Z,13.19
2018-01-29T12:59:31.793Z,13.22
2018-01-29T13:00:32.050Z,13.18
2018-01-29T13:01:32.038Z,13.22
2018-01-29T13:02:31.793Z,13.25
2018-01-29T13:03:32.052Z,13.3
2018-01-29T13:04:32.041Z,13.28
2018-01-29T13:05:31.541Z,13.38
2018-01-29T13:06:31.787Z,13.39
2018-01-29T13:07:31.784Z,13.49
2018-01-29T13:08:31.530Z,13.57
2018-01-29T13:09:31.782Z,13.59
2018-01-29T13:10:32.053Z,13.57
2018-01-29T13:11:32.078Z,13.57
2018-01-29T13:12:31.790Z,13.53
2018-01-29T13:13:32.055Z,13.56
2018-01-29T13:14:31.788Z,13.49
2018-01-29T13:15:31.779Z,13.41
2018-01-29T13:16:32.025Z,13.42
2018-01-29T13:17:31.773Z,13.42
2018-01-29T13:18:31.779Z,13.46
2018-01-29T13:19:31.774Z,13.47
2018-01-29T13:20:32.054Z,13.42
2018-01-29T13:21:32.022Z,13.42
2018-01-29T13:22:31.774Z,13.42
2018-01-29T13:23:32.024Z,13.47
2018-01-29T13:24:31.770Z,13.59
2018-01-29T13:25:31.770Z,13.57
2018-01-29T13:26:31.767Z,13.6
2018-01-29T13:27:31.770Z,13.57
2018-01-29T13:28:32.013Z,13.57
2018-01-29T13:29:31.772Z,13.52
2018-01-29T13:30:32.019Z,13.37
2018-01-29T13:31:31.772Z,13.3
2018-01-29T13:32:31.758Z,13.25
2018-01-29T13:33:31.508Z,13.18
2018-01-29T13:34:31.778Z,13.28
2018-01-29T13:35:31.757Z,13.01
2018-01-29T13:36:31.759Z,13.13
2018-01-29T13:37:31.501Z,13.03
2018-01-29T13:38:32.005Z,13.03
2018-01-29T13:39:32.009Z,12.95
2018-01-29T13:40:32.004Z,12.97
2018-01-29T13:41:31.803Z,12.94